sensor_id;sensor_type;location;lat;lon;timestamp;pressure;altitude;pressure_sealevel;temperature;humidity
48926;BME280;39838;59.938;30.642;2023-02-16T00:01:13;101560.13;;;0.72;70.22
48926;BME280;39838;59.938;30.642;2023-02-16T00:03:41;101550.78;;;0.73;70.38
48926;BME280;39838;59.938;30.642;2023-02-16T00:06:09;101555.91;;;0.73;70.35
48926;BME280;39838;59.938;30.642;2023-02-16T00:08:43;101554.84;;;0.69;70.55
48926;BME280;39838;59.938;30.642;2023-02-16T00:11:23;101506.56;;;0.44;70.08
48926;BME280;39838;59.938;30.642;2023-02-16T00:14:10;101554.59;;;0.65;70.52
48926;BME280;39838;59.938;30.642;2023-02-16T00:16:38;101553.78;;;0.66;70.38
48926;BME280;39838;59.938;30.642;2023-02-16T00:19:18;101527.50;;;0.53;70.64
48926;BME280;39838;59.938;30.642;2023-02-16T00:21:46;101550.53;;;0.68;70.38
48926;BME280;39838;59.938;30.642;2023-02-16T00:24:14;101550.63;;;0.70;70.45
48926;BME280;39838;59.938;30.642;2023-02-16T00:26:42;101549.75;;;0.69;70.33
48926;BME280;39838;59.938;30.642;2023-02-16T00:29:14;101553.19;;;0.70;70.58
48926;BME280;39838;59.938;30.642;2023-02-16T00:31:43;101552.22;;;0.68;70.24
48926;BME280;39838;59.938;30.642;2023-02-16T00:34:24;101546.03;;;0.64;70.71
48926;BME280;39838;59.938;30.642;2023-02-16T00:36:51;101553.72;;;0.64;70.71
48926;BME280;39838;59.938;30.642;2023-02-16T00:39:20;101545.88;;;0.61;70.19
48926;BME280;39838;59.938;30.642;2023-02-16T00:41:47;101552.63;;;0.61;70.74
48926;BME280;39838;59.938;30.642;2023-02-16T00:44:20;101552.91;;;0.65;70.86
48926;BME280;39838;59.938;30.642;2023-02-16T00:46:49;101550.53;;;0.68;70.60
48926;BME280;39838;59.938;30.642;2023-02-16T00:49:18;101544.72;;;0.71;70.47
48926;BME280;39838;59.938;30.642;2023-02-16T00:51:46;101544.72;;;0.71;70.09
48926;BME280;39838;59.938;30.642;2023-02-16T00:54:13;101537.84;;;0.70;70.42
48926;BME280;39838;59.938;30.642;2023-02-16T00:56:42;101539.44;;;0.68;70.32
48926;BME280;39838;59.938;30.642;2023-02-16T00:59:14;101528.13;;;0.64;70.15
48926;BME280;39838;59.938;30.642;2023-02-16T01:01:42;101534.22;;;0.66;70.39
48926;BME280;39838;59.938;30.642;2023-02-16T01:04:18;101528.84;;;0.62;70.33
48926;BME280;39838;59.938;30.642;2023-02-16T01:06:46;101523.63;;;0.60;70.68
48926;BME280;39838;59.938;30.642;2023-02-16T01:09:30;101524.34;;;0.58;70.91
48926;BME280;39838;59.938;30.642;2023-02-16T01:12:17;101524.00;;;0.51;70.48
48926;BME280;39838;59.938;30.642;2023-02-16T01:14:48;101520.47;;;0.49;70.96
48926;BME280;39838;59.938;30.642;2023-02-16T01:17:16;101522.25;;;0.50;71.26
48926;BME280;39838;59.938;30.642;2023-02-16T01:19:43;101531.59;;;0.50;71.25
48926;BME280;39838;59.938;30.642;2023-02-16T01:22:10;101519.59;;;0.49;71.43
48926;BME280;39838;59.938;30.642;2023-02-16T01:24:37;101518.97;;;0.53;71.03
48926;BME280;39838;59.938;30.642;2023-02-16T01:27:04;101519.69;;;0.50;71.05
48926;BME280;39838;59.938;30.642;2023-02-16T01:29:33;101525.69;;;0.51;71.35
48926;BME280;39838;59.938;30.642;2023-02-16T01:32:00;101520.47;;;0.49;71.18
48926;BME280;39838;59.938;30.642;2023-02-16T01:34:27;101516.25;;;0.50;71.08
48926;BME280;39838;59.938;30.642;2023-02-16T01:36:54;101524.88;;;0.52;71.08
48926;BME280;39838;59.938;30.642;2023-02-16T01:39:21;101527.16;;;0.47;71.04
48926;BME280;39838;59.938;30.642;2023-02-16T01:42:01;101487.16;;;0.33;71.43
48926;BME280;39838;59.938;30.642;2023-02-16T01:44:34;101504.00;;;0.44;70.97
48926;BME280;39838;59.938;30.642;2023-02-16T01:47:10;101511.13;;;0.50;71.13
48926;BME280;39838;59.938;30.642;2023-02-16T01:49:40;101514.28;;;0.46;71.05
48926;BME280;39838;59.938;30.642;2023-02-16T01:52:13;101507.06;;;0.39;71.32
48926;BME280;39838;59.938;30.642;2023-02-16T01:54:50;101501.53;;;0.31;71.11
48926;BME280;39838;59.938;30.642;2023-02-16T01:57:25;101490.34;;;0.29;71.75
48926;BME280;39838;59.938;30.642;2023-02-16T02:00:07;101497.56;;;0.36;71.50
48926;BME280;39838;59.938;30.642;2023-02-16T02:02:35;101498.59;;;0.40;71.46
48926;BME280;39838;59.938;30.642;2023-02-16T02:05:08;101487.50;;;0.39;71.27
48926;BME280;39838;59.938;30.642;2023-02-16T02:08:03;101486.81;;;0.42;71.82
48926;BME280;39838;59.938;30.642;2023-02-16T02:10:40;101483.47;;;0.43;71.73
48926;BME280;39838;59.938;30.642;2023-02-16T02:13:15;101489.53;;;0.45;71.20
48926;BME280;39838;59.938;30.642;2023-02-16T02:15:44;101493.84;;;0.46;71.19
48926;BME280;39838;59.938;30.642;2023-02-16T02:18:11;101489.78;;;0.49;70.89
48926;BME280;39838;59.938;30.642;2023-02-16T02:20:48;101494.91;;;0.49;70.81
48926;BME280;39838;59.938;30.642;2023-02-16T02:23:47;101480.25;;;0.47;71.10
48926;BME280;39838;59.938;30.642;2023-02-16T02:27:05;101495.06;;;0.52;70.59
48926;BME280;39838;59.938;30.642;2023-02-16T02:29:49;101491.28;;;0.46;70.87
48926;BME280;39838;59.938;30.642;2023-02-16T02:32:27;101444.72;;;0.20;70.78
48926;BME280;39838;59.938;30.642;2023-02-16T02:35:05;101490.41;;;0.45;71.16
48926;BME280;39838;59.938;30.642;2023-02-16T02:37:43;101484.41;;;0.45;71.04
48926;BME280;39838;59.938;30.642;2023-02-16T02:40:17;101480.09;;;0.44;71.56
48926;BME280;39838;59.938;30.642;2023-02-16T02:42:59;101484.16;;;0.40;71.13
48926;BME280;39838;59.938;30.642;2023-02-16T02:45:34;101484.88;;;0.38;71.44
48926;BME280;39838;59.938;30.642;2023-02-16T02:48:02;101479.59;;;0.35;71.59
48926;BME280;39838;59.938;30.642;2023-02-16T02:50:38;101480.47;;;0.35;71.59
48926;BME280;39838;59.938;30.642;2023-02-16T02:53:11;101481.16;;;0.33;71.94
48926;BME280;39838;59.938;30.642;2023-02-16T02:55:44;101467.25;;;0.28;71.78
48926;BME280;39838;59.938;30.642;2023-02-16T02:58:33;101469.19;;;0.32;72.08
48926;BME280;39838;59.938;30.642;2023-02-16T03:01:32;101470.78;;;0.30;71.41
48926;BME280;39838;59.938;30.642;2023-02-16T03:04:03;101475.25;;;0.34;71.50
48926;BME280;39838;59.938;30.642;2023-02-16T03:06:33;101456.94;;;0.26;72.11
48926;BME280;39838;59.938;30.642;2023-02-16T03:09:05;101458.94;;;0.32;71.73
48926;BME280;39838;59.938;30.642;2023-02-16T03:11:33;101461.59;;;0.33;71.68
48926;BME280;39838;59.938;30.642;2023-02-16T03:14:21;101443.34;;;0.27;72.02
48926;BME280;39838;59.938;30.642;2023-02-16T03:16:53;101458.06;;;0.31;71.94
48926;BME280;39838;59.938;30.642;2023-02-16T03:19:42;101450.59;;;0.34;71.73
48926;BME280;39838;59.938;30.642;2023-02-16T03:22:31;101444.34;;;0.29;72.05
48926;BME280;39838;59.938;30.642;2023-02-16T03:25:17;101450.13;;;0.26;71.66
48926;BME280;39838;59.938;30.642;2023-02-16T03:28:04;101442.38;;;0.25;72.24
48926;BME280;39838;59.938;30.642;2023-02-16T03:30:51;101428.81;;;0.26;72.10
48926;BME280;39838;59.938;30.642;2023-02-16T03:33:21;101435.38;;;0.21;72.03
48926;BME280;39838;59.938;30.642;2023-02-16T03:35:50;101437.19;;;0.23;72.54
48926;BME280;39838;59.938;30.642;2023-02-16T03:38:17;101436.41;;;0.24;72.47
48926;BME280;39838;59.938;30.642;2023-02-16T03:40:46;101426.91;;;0.22;72.25
48926;BME280;39838;59.938;30.642;2023-02-16T03:43:13;101427.25;;;0.28;72.39
48926;BME280;39838;59.938;30.642;2023-02-16T03:45:42;101400.03;;;0.14;72.32
48926;BME280;39838;59.938;30.642;2023-02-16T03:48:11;101417.91;;;0.29;72.55
48926;BME280;39838;59.938;30.642;2023-02-16T03:50:38;101417.97;;;0.30;72.55
48926;BME280;39838;59.938;30.642;2023-02-16T03:53:05;101426.44;;;0.29;72.11
48926;BME280;39838;59.938;30.642;2023-02-16T03:55:33;101399.03;;;0.12;72.15
48926;BME280;39838;59.938;30.642;2023-02-16T03:58:02;101415.78;;;0.21;72.16
48926;BME280;39838;59.938;30.642;2023-02-16T04:00:29;101416.69;;;0.22;72.71
48926;BME280;39838;59.938;30.642;2023-02-16T04:02:57;101413.31;;;0.23;72.56
48926;BME280;39838;59.938;30.642;2023-02-16T04:05:25;101415.94;;;0.24;72.30
48926;BME280;39838;59.938;30.642;2023-02-16T04:07:53;101408.94;;;0.20;72.44
48926;BME280;39838;59.938;30.642;2023-02-16T04:10:20;101410.50;;;0.18;72.64
48926;BME280;39838;59.938;30.642;2023-02-16T04:12:47;101409.53;;;0.16;72.45
48926;BME280;39838;59.938;30.642;2023-02-16T04:15:18;101405.03;;;0.12;72.93
48926;BME280;39838;59.938;30.642;2023-02-16T04:17:45;101407.13;;;0.19;72.48
48926;BME280;39838;59.938;30.642;2023-02-16T04:20:15;101406.09;;;0.16;73.06
48926;BME280;39838;59.938;30.642;2023-02-16T04:22:44;101405.31;;;0.17;73.02
48926;BME280;39838;59.938;30.642;2023-02-16T04:25:12;101415.44;;;0.15;73.32
48926;BME280;39838;59.938;30.642;2023-02-16T04:27:40;101392.63;;;0.04;73.18
48926;BME280;39838;59.938;30.642;2023-02-16T04:30:10;101403.53;;;0.16;72.92
48926;BME280;39838;59.938;30.642;2023-02-16T04:32:38;101402.75;;;0.17;72.95
48926;BME280;39838;59.938;30.642;2023-02-16T04:35:06;101403.63;;;0.17;72.94
48926;BME280;39838;59.938;30.642;2023-02-16T04:37:33;101397.47;;;0.14;73.04
48926;BME280;39838;59.938;30.642;2023-02-16T04:40:03;101400.91;;;0.14;72.84
48926;BME280;39838;59.938;30.642;2023-02-16T04:42:31;101401.78;;;0.15;73.17
48926;BME280;39838;59.938;30.642;2023-02-16T04:44:58;101383.72;;;0.12;72.69
48926;BME280;39838;59.938;30.642;2023-02-16T04:47:25;101401.16;;;0.19;72.54
48926;BME280;39838;59.938;30.642;2023-02-16T04:49:53;101399.59;;;0.21;72.89
48926;BME280;39838;59.938;30.642;2023-02-16T04:52:20;101397.78;;;0.20;72.46
48926;BME280;39838;59.938;30.642;2023-02-16T04:54:47;101394.19;;;0.16;72.68
48926;BME280;39838;59.938;30.642;2023-02-16T04:57:16;101394.94;;;0.14;72.65
48926;BME280;39838;59.938;30.642;2023-02-16T04:59:44;101390.59;;;0.13;72.84
48926;BME280;39838;59.938;30.642;2023-02-16T05:02:11;101392.19;;;0.11;72.71
48926;BME280;39838;59.938;30.642;2023-02-16T05:04:38;101390.44;;;0.10;72.85
48926;BME280;39838;59.938;30.642;2023-02-16T05:07:06;101393.69;;;0.07;73.02
48926;BME280;39838;59.938;30.642;2023-02-16T05:09:34;101389.28;;;0.05;73.33
48926;BME280;39838;59.938;30.642;2023-02-16T05:12:01;101386.72;;;0.05;73.39
48926;BME280;39838;59.938;30.642;2023-02-16T05:14:46;101381.63;;;0.05;73.13
48926;BME280;39838;59.938;30.642;2023-02-16T05:17:16;101382.34;;;0.02;73.65
48926;BME280;39838;59.938;30.642;2023-02-16T05:19:45;101359.53;;;-0.10;73.48
48926;BME280;39838;59.938;30.642;2023-02-16T05:22:12;101388.47;;;0.06;73.70
48926;BME280;39838;59.938;30.642;2023-02-16T05:24:40;101385.91;;;0.06;73.62
48926;BME280;39838;59.938;30.642;2023-02-16T05:27:11;101377.38;;;0.05;73.99
48926;BME280;39838;59.938;30.642;2023-02-16T05:29:38;101381.97;;;0.11;73.55
48926;BME280;39838;59.938;30.642;2023-02-16T05:32:07;101381.97;;;0.11;73.64
48926;BME280;39838;59.938;30.642;2023-02-16T05:34:34;101381.97;;;0.11;73.72
48926;BME280;39838;59.938;30.642;2023-02-16T05:37:02;101377.31;;;0.04;73.79
48926;BME280;39838;59.938;30.642;2023-02-16T05:39:29;101382.56;;;0.07;74.17
48926;BME280;39838;59.938;30.642;2023-02-16T05:41:56;101371.59;;;0.08;73.79
48926;BME280;39838;59.938;30.642;2023-02-16T05:44:23;101373.34;;;0.09;74.29
48926;BME280;39838;59.938;30.642;2023-02-16T05:46:50;101368.38;;;0.12;74.06
48926;BME280;39838;59.938;30.642;2023-02-16T05:49:19;101377.91;;;0.14;74.27
48926;BME280;39838;59.938;30.642;2023-02-16T05:51:46;101366.91;;;0.15;74.16
48926;BME280;39838;59.938;30.642;2023-02-16T05:54:13;101367.69;;;0.14;74.06
48926;BME280;39838;59.938;30.642;2023-02-16T05:56:43;101362.66;;;0.16;74.05
48926;BME280;39838;59.938;30.642;2023-02-16T05:59:11;101368.72;;;0.18;73.80
48926;BME280;39838;59.938;30.642;2023-02-16T06:01:38;101363.53;;;0.16;74.01
48926;BME280;39838;59.938;30.642;2023-02-16T06:04:07;101359.16;;;0.14;74.02
48926;BME280;39838;59.938;30.642;2023-02-16T06:06:36;101370.25;;;0.14;73.92
48926;BME280;39838;59.938;30.642;2023-02-16T06:09:04;101367.69;;;0.14;73.96
48926;BME280;39838;59.938;30.642;2023-02-16T06:11:31;101361.84;;;0.17;73.96
48926;BME280;39838;59.938;30.642;2023-02-16T06:14:08;101361.50;;;0.11;74.36
48926;BME280;39838;59.938;30.642;2023-02-16T06:16:37;101335.53;;;0.03;73.91
48926;BME280;39838;59.938;30.642;2023-02-16T06:19:05;101355.94;;;0.18;73.91
48926;BME280;39838;59.938;30.642;2023-02-16T06:21:33;101362.59;;;0.14;74.14
48926;BME280;39838;59.938;30.642;2023-02-16T06:24:03;101355.00;;;0.16;73.94
48926;BME280;39838;59.938;30.642;2023-02-16T06:26:30;101350.69;;;0.15;73.83
48926;BME280;39838;59.938;30.642;2023-02-16T06:28:57;101349.34;;;0.21;74.02
48926;BME280;39838;59.938;30.642;2023-02-16T06:31:25;101349.75;;;0.29;73.74
48926;BME280;39838;59.938;30.642;2023-02-16T06:33:53;101341.22;;;0.29;73.94
48926;BME280;39838;59.938;30.642;2023-02-16T06:36:22;101344.47;;;0.26;73.94
48926;BME280;39838;59.938;30.642;2023-02-16T06:38:49;101339.91;;;0.20;73.95
48926;BME280;39838;59.938;30.642;2023-02-16T06:41:18;101340.69;;;0.19;74.25
48926;BME280;39838;59.938;30.642;2023-02-16T06:43:58;101341.25;;;0.14;74.10
48926;BME280;39838;59.938;30.642;2023-02-16T06:46:25;101344.59;;;0.13;74.30
48926;BME280;39838;59.938;30.642;2023-02-16T06:48:53;101347.06;;;0.11;74.35
48926;BME280;39838;59.938;30.642;2023-02-16T06:51:20;101346.03;;;0.08;74.19
48926;BME280;39838;59.938;30.642;2023-02-16T06:53:47;101331.66;;;0.10;74.81
48926;BME280;39838;59.938;30.642;2023-02-16T06:56:14;101339.41;;;0.11;74.16
48926;BME280;39838;59.938;30.642;2023-02-16T06:58:43;101337.63;;;0.10;74.44
48926;BME280;39838;59.938;30.642;2023-02-16T07:01:10;101334.28;;;0.11;74.56
48926;BME280;39838;59.938;30.642;2023-02-16T07:03:37;101333.66;;;0.15;73.76
48926;BME280;39838;59.938;30.642;2023-02-16T07:06:05;101333.81;;;0.18;73.57
48926;BME280;39838;59.938;30.642;2023-02-16T07:08:33;101324.41;;;0.17;73.93
48926;BME280;39838;59.938;30.642;2023-02-16T07:11:00;101326.00;;;0.15;73.56
48926;BME280;39838;59.938;30.642;2023-02-16T07:13:27;101326.50;;;0.24;73.70
48926;BME280;39838;59.938;30.642;2023-02-16T07:15:55;101329.31;;;0.29;73.14
48926;BME280;39838;59.938;30.642;2023-02-16T07:18:22;101317.22;;;0.26;73.27
48926;BME280;39838;59.938;30.642;2023-02-16T07:20:49;101324.81;;;0.25;72.60
48926;BME280;39838;59.938;30.642;2023-02-16T07:23:16;101322.34;;;0.26;73.15
48926;BME280;39838;59.938;30.642;2023-02-16T07:25:44;101319.88;;;0.28;73.26
48926;BME280;39838;59.938;30.642;2023-02-16T07:28:11;101323.41;;;0.30;72.64
48926;BME280;39838;59.938;30.642;2023-02-16T07:30:38;101325.16;;;0.31;72.86
48926;BME280;39838;59.938;30.642;2023-02-16T07:33:07;101313.66;;;0.39;73.00
48926;BME280;39838;59.938;30.642;2023-02-16T07:35:34;101310.47;;;0.43;72.57
48926;BME280;39838;59.938;30.642;2023-02-16T07:38:03;101307.38;;;0.49;72.36
48926;BME280;39838;59.938;30.642;2023-02-16T07:40:30;101304.09;;;0.51;72.51
48926;BME280;39838;59.938;30.642;2023-02-16T07:42:58;101306.81;;;0.54;71.89
48926;BME280;39838;59.938;30.642;2023-02-16T07:45:25;101304.34;;;0.56;72.04
48926;BME280;39838;59.938;30.642;2023-02-16T07:47:53;101295.13;;;0.60;71.47
48926;BME280;39838;59.938;30.642;2023-02-16T07:50:21;101289.31;;;0.62;71.32
48926;BME280;39838;59.938;30.642;2023-02-16T07:52:48;101296.59;;;0.71;70.87
48926;BME280;39838;59.938;30.642;2023-02-16T07:55:15;101292.50;;;0.74;71.12
48926;BME280;39838;59.938;30.642;2023-02-16T07:57:42;101278.94;;;0.75;70.78
48926;BME280;39838;59.938;30.642;2023-02-16T08:00:10;101297.56;;;0.89;70.13
48926;BME280;39838;59.938;30.642;2023-02-16T08:02:39;101276.69;;;0.81;69.92
48926;BME280;39838;59.938;30.642;2023-02-16T08:05:06;101286.44;;;0.89;69.72
48926;BME280;39838;59.938;30.642;2023-02-16T08:07:35;101289.22;;;0.93;69.32
48926;BME280;39838;59.938;30.642;2023-02-16T08:10:02;101294.34;;;0.93;69.60
48926;BME280;39838;59.938;30.642;2023-02-16T08:12:30;101298.56;;;0.93;69.32
48926;BME280;39838;59.938;30.642;2023-02-16T08:14:57;101299.44;;;0.93;68.92
48926;BME280;39838;59.938;30.642;2023-02-16T08:17:24;101296.00;;;0.93;68.73
48926;BME280;39838;59.938;30.642;2023-02-16T08:19:54;101291.28;;;1.00;69.23
48926;BME280;39838;59.938;30.642;2023-02-16T08:22:21;101286.47;;;1.06;68.79
48926;BME280;39838;59.938;30.642;2023-02-16T08:24:50;101290.91;;;1.09;68.12
48926;BME280;39838;59.938;30.642;2023-02-16T08:27:18;101278.00;;;1.07;68.35
48926;BME280;39838;59.938;30.642;2023-02-16T08:29:45;101277.13;;;1.07;68.10
48926;BME280;39838;59.938;30.642;2023-02-16T08:32:13;101279.78;;;1.08;68.15
48926;BME280;39838;59.938;30.642;2023-02-16T08:34:41;101273.75;;;1.08;68.24
48926;BME280;39838;59.938;30.642;2023-02-16T08:37:10;101270.50;;;1.11;67.96
48926;BME280;39838;59.938;30.642;2023-02-16T08:39:38;101276.47;;;1.11;67.56
48926;BME280;39838;59.938;30.642;2023-02-16T08:42:08;101269.69;;;1.12;67.73
48926;BME280;39838;59.938;30.642;2023-02-16T08:44:36;101276.00;;;1.18;67.39
48926;BME280;39838;59.938;30.642;2023-02-16T08:47:03;101280.22;;;1.18;67.92
48926;BME280;39838;59.938;30.642;2023-02-16T08:49:30;101272.84;;;1.24;67.60
48926;BME280;39838;59.938;30.642;2023-02-16T08:51:58;101277.16;;;1.25;67.55
48926;BME280;39838;59.938;30.642;2023-02-16T08:54:27;101258.72;;;1.14;68.21
48926;BME280;39838;59.938;30.642;2023-02-16T08:56:55;101270.44;;;1.27;68.07
48926;BME280;39838;59.938;30.642;2023-02-16T08:59:25;101271.63;;;1.33;68.37
48926;BME280;39838;59.938;30.642;2023-02-16T09:01:53;101268.41;;;1.38;67.96
48926;BME280;39838;59.938;30.642;2023-02-16T09:04:20;101246.75;;;1.31;67.58
48926;BME280;39838;59.938;30.642;2023-02-16T09:06:49;101256.94;;;1.47;66.79
48926;BME280;39838;59.938;30.642;2023-02-16T09:09:17;101255.47;;;1.52;66.82
48926;BME280;39838;59.938;30.642;2023-02-16T09:11:45;101259.84;;;1.55;66.30
48926;BME280;39838;59.938;30.642;2023-02-16T09:14:12;101253.34;;;1.61;66.71
48926;BME280;39838;59.938;30.642;2023-02-16T09:16:41;101252.75;;;1.67;65.98
48926;BME280;39838;59.938;30.642;2023-02-16T09:19:11;101249.69;;;1.74;65.40
48926;BME280;39838;59.938;30.642;2023-02-16T09:21:40;101251.44;;;1.93;65.10
48926;BME280;39838;59.938;30.642;2023-02-16T09:24:08;101244.78;;;2.16;64.29
48926;BME280;39838;59.938;30.642;2023-02-16T09:26:36;101245.34;;;2.28;64.02
48926;BME280;39838;59.938;30.642;2023-02-16T09:29:07;101232.88;;;2.36;63.16
48926;BME280;39838;59.938;30.642;2023-02-16T09:31:36;101188.22;;;2.11;62.62
48926;BME280;39838;59.938;30.642;2023-02-16T09:34:07;101215.44;;;2.09;62.38
48926;BME280;39838;59.938;30.642;2023-02-16T09:36:39;101240.00;;;2.04;63.64
48926;BME280;39838;59.938;30.642;2023-02-16T09:39:06;101237.34;;;2.03;63.22
48926;BME280;39838;59.938;30.642;2023-02-16T09:41:43;101239.78;;;2.00;62.80
48926;BME280;39838;59.938;30.642;2023-02-16T09:44:21;101226.03;;;1.98;62.52
48926;BME280;39838;59.938;30.642;2023-02-16T09:46:54;101235.69;;;2.03;62.83
48926;BME280;39838;59.938;30.642;2023-02-16T09:49:29;101229.75;;;2.04;62.97
48926;BME280;39838;59.938;30.642;2023-02-16T09:52:03;101232.38;;;2.06;63.15
48926;BME280;39838;59.938;30.642;2023-02-16T09:54:39;101221.38;;;2.08;63.26
48926;BME280;39838;59.938;30.642;2023-02-16T09:57:18;101202.38;;;2.03;63.16
48926;BME280;39838;59.938;30.642;2023-02-16T09:59:51;101229.84;;;2.25;62.46
48926;BME280;39838;59.938;30.642;2023-02-16T10:02:32;101217.84;;;2.24;62.58
48926;BME280;39838;59.938;30.642;2023-02-16T10:05:16;101216.69;;;2.17;61.93
48926;BME280;39838;59.938;30.642;2023-02-16T10:07:56;101211.56;;;2.17;61.90
48926;BME280;39838;59.938;30.642;2023-02-16T10:10:30;101210.81;;;2.20;61.86
48926;BME280;39838;59.938;30.642;2023-02-16T10:13:02;101209.72;;;2.15;61.78
48926;BME280;39838;59.938;30.642;2023-02-16T10:15:33;101211.69;;;2.21;62.21
48926;BME280;39838;59.938;30.642;2023-02-16T10:18:06;101214.75;;;2.31;62.10
48926;BME280;39838;59.938;30.642;2023-02-16T10:20:41;101190.09;;;2.15;62.06
48926;BME280;39838;59.938;30.642;2023-02-16T10:23:18;101209.66;;;2.33;61.60
48926;BME280;39838;59.938;30.642;2023-02-16T10:25:55;101212.19;;;2.31;61.57
48926;BME280;39838;59.938;30.642;2023-02-16T10:28:30;101197.50;;;2.29;61.48
48926;BME280;39838;59.938;30.642;2023-02-16T10:31:01;101203.47;;;2.28;60.95
48926;BME280;39838;59.938;30.642;2023-02-16T10:33:35;101195.31;;;2.17;61.20
48926;BME280;39838;59.938;30.642;2023-02-16T10:36:15;101208.31;;;2.22;61.61
48926;BME280;39838;59.938;30.642;2023-02-16T10:38:51;101205.09;;;2.26;60.70
48926;BME280;39838;59.938;30.642;2023-02-16T10:41:28;101201.59;;;2.24;61.14
48926;BME280;39838;59.938;30.642;2023-02-16T10:44:01;101203.47;;;2.28;60.95
48926;BME280;39838;59.938;30.642;2023-02-16T10:46:31;101182.53;;;2.18;60.56
48926;BME280;39838;59.938;30.642;2023-02-16T10:49:00;101193.34;;;2.31;60.58
48926;BME280;39838;59.938;30.642;2023-02-16T10:51:31;101166.47;;;2.23;60.11
48926;BME280;39838;59.938;30.642;2023-02-16T10:54:01;101178.03;;;2.32;60.39
48926;BME280;39838;59.938;30.642;2023-02-16T10:56:48;101184.03;;;2.33;60.21
48926;BME280;39838;59.938;30.642;2023-02-16T10:59:20;101179.63;;;2.30;59.87
48926;BME280;39838;59.938;30.642;2023-02-16T11:01:49;101175.19;;;2.26;59.89
48926;BME280;39838;59.938;30.642;2023-02-16T11:04:38;101184.41;;;2.23;60.00
48926;BME280;39838;59.938;30.642;2023-02-16T11:07:10;101153.03;;;2.09;60.21
48926;BME280;39838;59.938;30.642;2023-02-16T11:09:38;101171.31;;;2.16;60.20
48926;BME280;39838;59.938;30.642;2023-02-16T11:12:25;101168.63;;;2.13;60.13
48926;BME280;39838;59.938;30.642;2023-02-16T11:14:55;101176.31;;;2.13;59.95
48926;BME280;39838;59.938;30.642;2023-02-16T11:17:23;101175.41;;;2.11;60.02
48926;BME280;39838;59.938;30.642;2023-02-16T11:19:53;101170.03;;;2.07;60.07
48926;BME280;39838;59.938;30.642;2023-02-16T11:22:34;101170.19;;;1.90;59.70
48926;BME280;39838;59.938;30.642;2023-02-16T11:25:20;101177.50;;;1.83;60.00
48926;BME280;39838;59.938;30.642;2023-02-16T11:27:51;101153.81;;;1.69;60.25
48926;BME280;39838;59.938;30.642;2023-02-16T11:30:26;101166.25;;;1.79;60.25
48926;BME280;39838;59.938;30.642;2023-02-16T11:32:54;101160.19;;;1.77;59.87
48926;BME280;39838;59.938;30.642;2023-02-16T11:35:21;101178.53;;;1.69;59.67
48926;BME280;39838;59.938;30.642;2023-02-16T11:37:50;101166.25;;;1.61;59.78
48926;BME280;39838;59.938;30.642;2023-02-16T11:40:21;101170.09;;;1.52;59.65
48926;BME280;39838;59.938;30.642;2023-02-16T11:42:50;101165.53;;;1.46;60.36
48926;BME280;39838;59.938;30.642;2023-02-16T11:45:25;101155.19;;;1.43;60.05
48926;BME280;39838;59.938;30.642;2023-02-16T11:47:54;101162.06;;;1.44;59.55
48926;BME280;39838;59.938;30.642;2023-02-16T11:50:25;101153.13;;;1.36;59.99
48926;BME280;39838;59.938;30.642;2023-02-16T11:52:57;101163.44;;;1.38;60.08
48926;BME280;39838;59.938;30.642;2023-02-16T11:55:41;101150.84;;;1.42;60.05
48926;BME280;39838;59.938;30.642;2023-02-16T11:58:16;101143.97;;;1.41;59.79
48926;BME280;39838;59.938;30.642;2023-02-16T12:00:51;101152.31;;;1.37;60.12
48926;BME280;39838;59.938;30.642;2023-02-16T12:03:44;101155.59;;;1.34;59.67
48926;BME280;39838;59.938;30.642;2023-02-16T12:06:28;101153.91;;;1.35;60.23
48926;BME280;39838;59.938;30.642;2023-02-16T12:09:08;101140.97;;;1.32;59.76
48926;BME280;39838;59.938;30.642;2023-02-16T12:11:46;101139.16;;;1.29;59.77
48926;BME280;39838;59.938;30.642;2023-02-16T12:14:23;101137.19;;;1.24;59.61
48926;BME280;39838;59.938;30.642;2023-02-16T12:16:58;101133.28;;;1.14;59.73
48926;BME280;39838;59.938;30.642;2023-02-16T12:19:36;101133.91;;;1.08;59.41
48926;BME280;39838;59.938;30.642;2023-02-16T12:22:08;101126.81;;;1.03;59.89
48926;BME280;39838;59.938;30.642;2023-02-16T12:24:47;101094.03;;;0.78;60.20
48926;BME280;39838;59.938;30.642;2023-02-16T12:27:24;101117.84;;;0.95;60.32
48926;BME280;39838;59.938;30.642;2023-02-16T12:29:59;101123.88;;;0.95;60.22
48926;BME280;39838;59.938;30.642;2023-02-16T12:32:36;101124.81;;;0.97;60.17
48926;BME280;39838;59.938;30.642;2023-02-16T12:35:15;101118.00;;;0.98;59.98
48926;BME280;39838;59.938;30.642;2023-02-16T12:37:51;101117.94;;;0.96;59.99
48926;BME280;39838;59.938;30.642;2023-02-16T12:40:34;101121.97;;;0.91;59.87
48926;BME280;39838;59.938;30.642;2023-02-16T12:43:14;101115.97;;;0.91;60.41
48926;BME280;39838;59.938;30.642;2023-02-16T12:45:45;101115.22;;;0.93;59.91
48926;BME280;39838;59.938;30.642;2023-02-16T12:48:25;101104.56;;;0.84;60.28
48926;BME280;39838;59.938;30.642;2023-02-16T12:50:55;101121.81;;;0.88;60.13
48926;BME280;39838;59.938;30.642;2023-02-16T12:53:27;101112.00;;;0.79;59.73
48926;BME280;39838;59.938;30.642;2023-02-16T12:56:00;101118.72;;;0.77;59.93
48926;BME280;39838;59.938;30.642;2023-02-16T12:58:31;101105.88;;;0.76;59.93
48926;BME280;39838;59.938;30.642;2023-02-16T13:01:02;101111.88;;;0.76;60.41
48926;BME280;39838;59.938;30.642;2023-02-16T13:03:34;101092.25;;;0.59;60.33
48926;BME280;39838;59.938;30.642;2023-02-16T13:06:12;101103.44;;;0.79;60.10
48926;BME280;39838;59.938;30.642;2023-02-16T13:08:43;101111.28;;;0.82;60.03
48926;BME280;39838;59.938;30.642;2023-02-16T13:11:18;101106.00;;;0.79;60.04
48926;BME280;39838;59.938;30.642;2023-02-16T13:13:48;101103.88;;;0.70;59.63